Weather observations for the past three days for
Wenatchee - Pangborn Memorial Airport
Imperial (Metric)
Date Time (pdt) Wind (mph) Vis. (mi.) Weather Sky Cond. Temperature (ºF) Relative Humidity Wind Chill (°F) Heat Index (°F) Pressure Precipitation (in)
Air Dwpt 6 hour altimeter (in) sea level (mb) 1 hr 3 hr 6 hr
Max. Min.
06 04:55 W 9 10.00 Fair CLR 63 43 73 62.1 48% 29.88 1011.0
06 03:55 NW 9 10.00 Fair CLR 64 44.1 48% 29.88 1010.9
06 02:55 NW 9 10.00 Fair CLR 64.9 44.1 47% 29.86 1010.4
06 01:55 NW 12 10.00 Fair CLR 66.9 44.1 44% 29.86 1010.3
06 00:55 N 7 10.00 Fair CLR 66.9 44.1 44% 29.86 1010.3
05 23:55 NW 12 10.00 Fair CLR 71.1 43 36% 29.84 1009.6
05 22:55 NW 13 10.00 Fair CLR 72 42.1 84 71.1 34% 29.83 1009.3
05 21:55 NW 8 10.00 Fair CLR 73 39.9 30% 29.82 1008.9
05 20:55 NW 6 10.00 Fair CLR 75 39.9 28% 77 29.81 1008.7
05 19:55 Calm 10.00 Fair CLR 78.1 44.1 30% 78 29.79 1008.1
05 18:55 E 9 10.00 Fair CLR 80.1 44.1 28% 79 29.78 1007.7
05 17:55 E 9 10.00 Fair CLR 82 44.1 26% 80 29.79 1007.9
05 16:55 SE 8 10.00 Fair CLR 84 42.1 84 73 23% 81 29.8 1008.2
05 15:55 SE 12 10.00 Fair CLR 82.9 42.1 24% 81 29.81 1008.7
05 14:55 SE 8 10.00 Fair CLR 82 39.9 22% 80 29.83 1009.2
05 13:55 S 8 10.00 Fair CLR 81 39 22% 79 29.85 1009.8
05 12:55 SE 8 10.00 Fair CLR 79 41 26% 78 29.86 1010.3
05 11:55 E 3 10.00 Fair CLR 75 42.1 31% 77 29.88 1011.0
05 10:55 Calm 10.00 Fair CLR 73 44.1 73 57.9 35% 29.89 1011.4
05 09:55 Vrbl 3 10.00 Fair CLR 70 44.1 39% 29.9 1011.6
05 08:55 W 7 10.00 Fair CLR 66 44.1 45% 29.9 1011.8
05 07:55 Calm 10.00 Fair CLR 64 46 52% 29.9 1011.6
05 06:55 E 3 10.00 Fair CLR 60.1 46 60% 29.88 1011.1
05 05:55 W 7 10.00 Fair CLR 59 45 60% 29.86 1010.2
05 04:55 SW 5 10.00 Fair CLR 61 45 73.9 61 56% 29.84 1009.5
05 03:55 W 7 10.00 Fair CLR 63 45 52% 29.82 1009.0
05 02:55 NW 9 10.00 Fair CLR 66 44.1 45% 29.81 1008.6
05 01:55 N 9 10.00 Fair CLR 66.9 44.1 44% 29.8 1008.3
05 00:55 NW 8 10.00 Fair CLR 69.1 44.1 41% 29.8 1008.0
04 23:55 NW 9 10.00 Overcast OVC120 71.1 44.1 38% 29.77 1007.3
04 22:55 W 8 10.00 Mostly Cloudy BKN120 73 44.1 86 73 35% 29.76 1006.8
04 21:55 NW 10 10.00 Fair CLR 75.9 44.1 32% 77 29.75 1006.4
04 20:55 NW 15 10.00 Mostly Cloudy BKN110 79 44.1 29% 79 29.72 1005.5
04 19:55 N 3 10.00 A Few Clouds FEW110 82 39 22% 80 29.7 1004.7
04 18:55 Calm 10.00 Mostly Cloudy BKN110 86 39.9 20% 83 29.68 1004.1
04 17:55 SE 5 10.00 A Few Clouds FEW120 84 39 20% 81 29.68 1004.3
04 16:55 SE 5 10.00 Partly Cloudy SCT120 84.9 35.1 88 73.9 17% 82 29.68 1004.3
04 15:55 SW 7 10.00 Fair CLR 87.1 35.1 16% 84 29.69 1004.5
04 14:55 Calm 10.00 Fair CLR 84.9 36 17% 82 29.71 1005.2
04 13:55 Calm 10.00 Fair CLR 82.9 37 19% 80 29.73 1005.9
04 12:55 Vrbl 3 10.00 Fair CLR 82 37 20% 80 29.76 1006.8
04 11:55 Calm 10.00 Fair CLR 78.1 39 25% 78 29.78 1007.6
04 10:55 W 7 10.00 Fair CLR 73.9 39 73.9 55.9 28% 29.8 1008.3
04 09:55 W 6 10.00 Fair CLR 69.1 39.9 35% 29.81 1008.7
04 08:55 W 10 10.00 Fair CLR 64.9 41 42% 29.82 1009.0
04 07:55 W 8 10.00 Fair CLR 61 42.1 50% 29.82 1009.2
04 06:55 W 8 10.00 Fair CLR 57.9 41 53% 29.82 1009.0
04 05:55 W 8 10.00 Fair CLR 57 41 55% 29.8 1008.5
04 04:55 NW 5 10.00 Fair CLR 57 42.1 72 57 58% 29.8 1008.3
04 03:55 W 8 10.00 Fair CLR 60.1 42.1 52% 29.8 1008.2
04 02:55 W 9 10.00 Fair CLR 60.1 42.1 52% 29.8 1008.3
04 01:55 W 12 10.00 Fair CLR 64 42.1 45% 29.79 1008.0
04 00:55 W 6 10.00 Fair CLR 66 41 40% 29.79 1007.8
03 23:55 W 6 10.00 Fair CLR 69.1 41 36% 29.78 1007.6
03 22:55 NW 7 10.00 Fair CLR 71.1 41 84.9 69.1 34% 29.78 1007.6
03 21:55 NW 3 10.00 Fair CLR 72 39.9 31% 29.78 1007.6
03 20:55 Calm 10.00 Fair CLR 75.9 39 26% 77 29.76 1007.2
03 19:55 E 6 10.00 Fair CLR 77 43 30% 78 29.75 1006.8
03 18:55 SE 6 10.00 Fair CLR 82 41 23% 80 29.76 1006.9
03 17:55 Vrbl 6 10.00 Fair CLR 84 37 19% 81 29.77 1007.4
03 16:55 SE 8 10.00 Fair CLR 84.9 36 84.9 71.1 17% 82 29.79 1008.0
03 15:55 Calm 10.00 Fair CLR 84 35.1 17% 81 29.82 1008.8
03 14:55 SE 8 10.00 Fair CLR 84.9 36 17% 82 29.85 1009.9
03 13:55 S 7 10.00 Fair CLR 82 37 20% 80 29.87 1010.7
03 12:55 Vrbl 5 10.00 Fair CLR 79 39.9 25% 78 29.9 1011.6
03 11:55 Calm 10.00 Fair CLR 75.9 42.1 30% 77 29.93 1012.7
03 10:55 W 8 10.00 Fair CLR 71.1 42.1 71.1 53.1 35% 29.95 1013.4
03 09:55 W 12 10.00 Fair CLR 68 41 38% 29.96 1014.0
03 08:55 W 8 10.00 Fair CLR 63 42.1 47% 29.98 1014.8
03 07:55 W 14 10.00 Fair CLR 59 41 51% 29.99 1014.9
03 06:55 W 9 10.00 Fair CLR 55 42.1 62% 29.98 1014.8
03 05:55 W 7 10.00 Fair CLR 54 42.1 64% 29.98 1014.7
Date Time (pdt) Wind (mph) Vis. (mi.) Weather Sky Cond. Air Dwpt Max. Min. Relative Humidity Wind Chill (°F) Heat Index (°F) altimeter (in) sea level (mb) 1 hr 3 hr 6 hr
6 hour
Temperature (ºF) Pressure Precipitation (in)